This is the latest recevied weather packets stored in our database for station/object KR4CWL-13. If no packets are shown the sender has not sent any weather packets the latest 10 day(s).
| Time | Temp. | Humidity | Pressure | Rain* | Wind** | Luminosity | Snow |
|---|---|---|---|---|---|---|---|
| 1777910047 | 26.11° C | 34% | 1009.5 hPa | 0 mm | - | - | - |
| 1777909447 | 25° C | 37% | 1009.8 hPa | 0 mm | - | - | - |
| 1777908846 | 25° C | 37% | 1009.8 hPa | 0 mm | - | - | - |
| 1777908246 | 25° C | 37% | 1009.8 hPa | 0 mm | - | - | - |
| 1777907646 | 24.44° C | 40% | 1009.8 hPa | 0 mm | - | - | - |
| 1777907046 | 23.89° C | 42% | 1009.8 hPa | 0 mm | - | - | - |
| 1777906446 | 23.89° C | 44% | 1009.8 hPa | 0 mm | - | - | - |
| 1777905846 | 22.78° C | 45% | 1009.8 hPa | 0 mm | - | - | - |
| 1777905246 | 21.67° C | 49% | 1009.8 hPa | 0 mm | - | - | - |
| 1777904646 | 21.11° C | 52% | 1009.8 hPa | 0 mm | - | - | - |
| 1777904046 | 22.22° C | 51% | 1009.8 hPa | 0 mm | - | - | - |
| 1777903446 | 20° C | 56% | 1010.2 hPa | 0 mm | - | - | - |
| 1777902846 | 19.44° C | 58% | 1010.2 hPa | 0 mm | - | - | - |
| 1777902246 | 18.89° C | 60% | 1010.2 hPa | 0 mm | - | - | - |
| 1777901646 | 18.89° C | 60% | 1010.2 hPa | 0 mm | - | - | - |
| 1777901046 | 17.78° C | 61% | 1010.2 hPa | 0 mm | - | - | - |
| 1777900446 | 16.67° C | 66% | 1010.2 hPa | 0 mm | - | - | - |
| 1777899846 | 16.11° C | 69% | 1009.8 hPa | 0 mm | - | - | - |
| 1777899246 | 15° C | 74% | 1009.8 hPa | 0 mm | - | - | - |
| 1777898646 | 14.44° C | 77% | 1009.5 hPa | 0 mm | - | - | - |
| 1777898046 | 13.33° C | 81% | 1009.8 hPa | 0 mm | - | - | - |
| 1777897446 | 12.22° C | 86% | 1010.2 hPa | 0 mm | - | - | - |
| 1777896846 | 11.11° C | 90% | 1010.2 hPa | 0 mm | - | - | - |
| 1777896246 | 11.11° C | 92% | 1009.8 hPa | 0 mm | - | - | - |
| 1777895646 | 10° C | 95% | 1009.8 hPa | 0 mm | - | - | - |
* Rain since midnight (hover to see other rain measurements)
** Current wind speed in m/s (hover to see current wind gust speed)